sensor_id;sensor_type;location;lat;lon;timestamp;P1;durP1;ratioP1;P2;durP2;ratioP2
26062;SDS011;13837;48.562;12.108;2023-02-01T00:01:50;23.15;;;21.85;;
26062;SDS011;13837;48.562;12.108;2023-02-01T00:04:17;23.85;;;22.20;;
26062;SDS011;13837;48.562;12.108;2023-02-01T00:06:43;23.50;;;22.00;;
26062;SDS011;13837;48.562;12.108;2023-02-01T00:09:09;22.77;;;21.48;;
26062;SDS011;13837;48.562;12.108;2023-02-01T00:11:35;22.27;;;20.95;;
26062;SDS011;13837;48.562;12.108;2023-02-01T00:14:01;23.25;;;21.83;;
26062;SDS011;13837;48.562;12.108;2023-02-01T00:16:28;23.40;;;21.95;;
26062;SDS011;13837;48.562;12.108;2023-02-01T00:19:27;22.77;;;21.33;;
26062;SDS011;13837;48.562;12.108;2023-02-01T00:21:47;23.00;;;21.70;;
26062;SDS011;13837;48.562;12.108;2023-02-01T00:24:13;23.75;;;22.25;;
26062;SDS011;13837;48.562;12.108;2023-02-01T00:26:43;24.05;;;22.30;;
26062;SDS011;13837;48.562;12.108;2023-02-01T00:29:13;23.13;;;21.73;;
26062;SDS011;13837;48.562;12.108;2023-02-01T00:31:40;23.13;;;21.73;;
26062;SDS011;13837;48.562;12.108;2023-02-01T00:34:06;23.00;;;21.60;;
26062;SDS011;13837;48.562;12.108;2023-02-01T00:36:33;23.75;;;22.17;;
26062;SDS011;13837;48.562;12.108;2023-02-01T00:38:59;24.65;;;22.92;;
26062;SDS011;13837;48.562;12.108;2023-02-01T00:41:25;24.75;;;22.95;;
26062;SDS011;13837;48.562;12.108;2023-02-01T00:43:52;23.95;;;22.35;;
26062;SDS011;13837;48.562;12.108;2023-02-01T00:46:18;23.98;;;22.52;;
26062;SDS011;13837;48.562;12.108;2023-02-01T00:48:44;25.00;;;23.58;;
26062;SDS011;13837;48.562;12.108;2023-02-01T00:51:12;25.02;;;23.63;;
26062;SDS011;13837;48.562;12.108;2023-02-01T00:53:39;25.85;;;24.08;;
26062;SDS011;13837;48.562;12.108;2023-02-01T00:56:05;24.13;;;22.63;;
26062;SDS011;13837;48.562;12.108;2023-02-01T00:58:32;24.20;;;22.80;;
26062;SDS011;13837;48.562;12.108;2023-02-01T01:01:03;24.13;;;22.73;;
26062;SDS011;13837;48.562;12.108;2023-02-01T01:03:29;25.40;;;23.80;;
26062;SDS011;13837;48.562;12.108;2023-02-01T01:05:58;24.95;;;23.25;;
26062;SDS011;13837;48.562;12.108;2023-02-01T01:08:25;25.50;;;23.48;;
26062;SDS011;13837;48.562;12.108;2023-02-01T01:10:51;23.75;;;22.23;;
26062;SDS011;13837;48.562;12.108;2023-02-01T01:13:17;23.55;;;22.02;;
26062;SDS011;13837;48.562;12.108;2023-02-01T01:15:43;23.15;;;21.75;;
26062;SDS011;13837;48.562;12.108;2023-02-01T01:18:09;23.70;;;22.17;;
26062;SDS011;13837;48.562;12.108;2023-02-01T01:20:36;23.38;;;21.58;;
26062;SDS011;13837;48.562;12.108;2023-02-01T01:23:03;23.63;;;22.20;;
26062;SDS011;13837;48.562;12.108;2023-02-01T01:25:29;24.23;;;22.83;;
26062;SDS011;13837;48.562;12.108;2023-02-01T01:27:55;23.98;;;22.45;;
26062;SDS011;13837;48.562;12.108;2023-02-01T01:30:21;23.85;;;22.42;;
26062;SDS011;13837;48.562;12.108;2023-02-01T01:32:48;23.35;;;22.05;;
26062;SDS011;13837;48.562;12.108;2023-02-01T01:35:14;23.35;;;21.95;;
26062;SDS011;13837;48.562;12.108;2023-02-01T01:37:40;24.02;;;22.52;;
26062;SDS011;13837;48.562;12.108;2023-02-01T01:40:07;23.73;;;22.35;;
26062;SDS011;13837;48.562;12.108;2023-02-01T01:42:36;24.42;;;22.83;;
26062;SDS011;13837;48.562;12.108;2023-02-01T01:47:31;24.10;;;22.55;;
26062;SDS011;13837;48.562;12.108;2023-02-01T01:50:00;24.83;;;23.20;;
26062;SDS011;13837;48.562;12.108;2023-02-01T01:52:27;24.15;;;22.52;;
26062;SDS011;13837;48.562;12.108;2023-02-01T01:54:53;24.60;;;22.65;;
26062;SDS011;13837;48.562;12.108;2023-02-01T01:57:22;23.90;;;22.38;;
26062;SDS011;13837;48.562;12.108;2023-02-01T01:59:53;23.35;;;22.00;;
26062;SDS011;13837;48.562;12.108;2023-02-01T02:02:20;24.27;;;22.35;;
26062;SDS011;13837;48.562;12.108;2023-02-01T02:04:46;23.70;;;22.10;;
26062;SDS011;13837;48.562;12.108;2023-02-01T02:07:14;23.50;;;22.00;;
26062;SDS011;13837;48.562;12.108;2023-02-01T02:09:41;24.80;;;23.20;;
26062;SDS011;13837;48.562;12.108;2023-02-01T02:12:08;24.17;;;22.67;;
26062;SDS011;13837;48.562;12.108;2023-02-01T02:14:34;24.27;;;22.77;;
26062;SDS011;13837;48.562;12.108;2023-02-01T02:22:17;24.08;;;22.48;;
26062;SDS011;13837;48.562;12.108;2023-02-01T02:25:13;23.58;;;22.13;;
26062;SDS011;13837;48.562;12.108;2023-02-01T02:30:40;24.20;;;22.70;;
26062;SDS011;13837;48.562;12.108;2023-02-01T02:43:25;24.30;;;22.73;;
26062;SDS011;13837;48.562;12.108;2023-02-01T02:46:20;25.67;;;24.05;;
26062;SDS011;13837;48.562;12.108;2023-02-01T02:51:37;24.35;;;22.65;;
26062;SDS011;13837;48.562;12.108;2023-02-01T02:54:24;24.88;;;23.13;;
26062;SDS011;13837;48.562;12.108;2023-02-01T02:57:26;25.35;;;23.65;;
26062;SDS011;13837;48.562;12.108;2023-02-01T03:00:13;25.58;;;23.67;;
26062;SDS011;13837;48.562;12.108;2023-02-01T03:02:59;25.48;;;23.88;;
26062;SDS011;13837;48.562;12.108;2023-02-01T03:05:45;24.75;;;23.05;;
26062;SDS011;13837;48.562;12.108;2023-02-01T03:08:18;25.90;;;24.15;;
26062;SDS011;13837;48.562;12.108;2023-02-01T03:13:36;26.65;;;24.80;;
26062;SDS011;13837;48.562;12.108;2023-02-01T03:16:06;25.30;;;23.70;;
26062;SDS011;13837;48.562;12.108;2023-02-01T03:21:00;25.90;;;23.95;;
26062;SDS011;13837;48.562;12.108;2023-02-01T03:23:30;35.10;;;33.13;;
26062;SDS011;13837;48.562;12.108;2023-02-01T03:25:57;25.48;;;23.90;;
26062;SDS011;13837;48.562;12.108;2023-02-01T03:28:24;25.10;;;23.45;;
26062;SDS011;13837;48.562;12.108;2023-02-01T03:30:52;26.00;;;24.33;;
26062;SDS011;13837;48.562;12.108;2023-02-01T03:33:20;25.00;;;23.20;;
26062;SDS011;13837;48.562;12.108;2023-02-01T03:40:55;25.23;;;23.52;;
26062;SDS011;13837;48.562;12.108;2023-02-01T03:43:23;25.50;;;23.77;;
26062;SDS011;13837;48.562;12.108;2023-02-01T03:45:53;25.65;;;24.00;;
26062;SDS011;13837;48.562;12.108;2023-02-01T03:50:48;24.95;;;23.25;;
26062;SDS011;13837;48.562;12.108;2023-02-01T03:53:16;25.27;;;23.55;;
26062;SDS011;13837;48.562;12.108;2023-02-01T03:55:44;25.65;;;23.75;;
26062;SDS011;13837;48.562;12.108;2023-02-01T04:00:37;25.98;;;24.38;;
26062;SDS011;13837;48.562;12.108;2023-02-01T04:03:04;25.63;;;23.92;;
26062;SDS011;13837;48.562;12.108;2023-02-01T04:05:30;25.23;;;23.70;;
26062;SDS011;13837;48.562;12.108;2023-02-01T04:08:05;25.08;;;23.48;;
26062;SDS011;13837;48.562;12.108;2023-02-01T04:10:32;25.58;;;23.83;;
26062;SDS011;13837;48.562;12.108;2023-02-01T04:12:58;25.92;;;24.23;;
26062;SDS011;13837;48.562;12.108;2023-02-01T04:15:24;26.48;;;24.88;;
26062;SDS011;13837;48.562;12.108;2023-02-01T04:17:50;26.65;;;24.85;;
26062;SDS011;13837;48.562;12.108;2023-02-01T04:20:16;25.58;;;23.88;;
26062;SDS011;13837;48.562;12.108;2023-02-01T04:22:43;26.55;;;24.92;;
26062;SDS011;13837;48.562;12.108;2023-02-01T04:25:09;27.38;;;25.50;;
26062;SDS011;13837;48.562;12.108;2023-02-01T04:27:35;28.35;;;26.23;;
26062;SDS011;13837;48.562;12.108;2023-02-01T04:30:02;26.67;;;24.98;;
26062;SDS011;13837;48.562;12.108;2023-02-01T04:32:28;26.63;;;24.58;;
26062;SDS011;13837;48.562;12.108;2023-02-01T04:34:54;26.30;;;24.58;;
26062;SDS011;13837;48.562;12.108;2023-02-01T04:37:20;25.67;;;24.02;;
26062;SDS011;13837;48.562;12.108;2023-02-01T04:39:46;26.45;;;24.73;;
26062;SDS011;13837;48.562;12.108;2023-02-01T04:42:12;25.90;;;24.27;;
26062;SDS011;13837;48.562;12.108;2023-02-01T04:44:38;26.20;;;24.52;;
26062;SDS011;13837;48.562;12.108;2023-02-01T04:47:06;26.45;;;24.42;;
26062;SDS011;13837;48.562;12.108;2023-02-01T04:49:32;25.38;;;23.77;;
26062;SDS011;13837;48.562;12.108;2023-02-01T04:51:59;26.23;;;24.52;;
26062;SDS011;13837;48.562;12.108;2023-02-01T04:54:25;25.38;;;23.67;;
26062;SDS011;13837;48.562;12.108;2023-02-01T04:56:51;25.30;;;23.70;;
26062;SDS011;13837;48.562;12.108;2023-02-01T04:59:17;24.95;;;23.35;;
26062;SDS011;13837;48.562;12.108;2023-02-01T05:01:43;25.10;;;23.40;;
26062;SDS011;13837;48.562;12.108;2023-02-01T05:04:09;25.65;;;23.95;;
26062;SDS011;13837;48.562;12.108;2023-02-01T05:06:35;26.25;;;24.45;;
26062;SDS011;13837;48.562;12.108;2023-02-01T05:09:01;25.50;;;23.70;;
26062;SDS011;13837;48.562;12.108;2023-02-01T05:11:27;25.15;;;23.45;;
26062;SDS011;13837;48.562;12.108;2023-02-01T05:14:12;25.15;;;23.55;;
26062;SDS011;13837;48.562;12.108;2023-02-01T05:16:38;24.42;;;22.92;;
26062;SDS011;13837;48.562;12.108;2023-02-01T05:19:04;25.88;;;24.17;;
26062;SDS011;13837;48.562;12.108;2023-02-01T05:21:30;24.98;;;23.58;;
26062;SDS011;13837;48.562;12.108;2023-02-01T05:23:56;25.27;;;23.70;;
26062;SDS011;13837;48.562;12.108;2023-02-01T05:26:34;25.80;;;24.08;;
26062;SDS011;13837;48.562;12.108;2023-02-01T05:29:00;25.55;;;23.95;;
26062;SDS011;13837;48.562;12.108;2023-02-01T05:31:26;25.30;;;23.67;;
26062;SDS011;13837;48.562;12.108;2023-02-01T05:33:53;26.33;;;24.42;;
26062;SDS011;13837;48.562;12.108;2023-02-01T05:36:19;25.35;;;23.70;;
26062;SDS011;13837;48.562;12.108;2023-02-01T05:38:45;25.48;;;23.77;;
26062;SDS011;13837;48.562;12.108;2023-02-01T05:41:11;25.42;;;23.80;;
26062;SDS011;13837;48.562;12.108;2023-02-01T05:43:37;24.83;;;23.42;;
26062;SDS011;13837;48.562;12.108;2023-02-01T05:46:03;24.23;;;22.73;;
26062;SDS011;13837;48.562;12.108;2023-02-01T05:48:29;25.15;;;23.75;;
26062;SDS011;13837;48.562;12.108;2023-02-01T05:50:55;24.30;;;23.00;;
26062;SDS011;13837;48.562;12.108;2023-02-01T05:53:21;24.77;;;23.38;;
26062;SDS011;13837;48.562;12.108;2023-02-01T05:55:47;24.88;;;23.38;;
26062;SDS011;13837;48.562;12.108;2023-02-01T05:58:14;24.35;;;23.05;;
26062;SDS011;13837;48.562;12.108;2023-02-01T06:00:40;25.15;;;23.77;;
26062;SDS011;13837;48.562;12.108;2023-02-01T06:03:06;24.15;;;22.83;;
26062;SDS011;13837;48.562;12.108;2023-02-01T06:05:32;24.50;;;23.13;;
26062;SDS011;13837;48.562;12.108;2023-02-01T06:07:58;24.42;;;22.88;;
26062;SDS011;13837;48.562;12.108;2023-02-01T06:10:24;25.52;;;24.00;;
26062;SDS011;13837;48.562;12.108;2023-02-01T06:12:50;25.08;;;23.67;;
26062;SDS011;13837;48.562;12.108;2023-02-01T06:15:17;24.10;;;22.60;;
26062;SDS011;13837;48.562;12.108;2023-02-01T06:17:44;24.98;;;23.50;;
26062;SDS011;13837;48.562;12.108;2023-02-01T06:20:11;25.20;;;23.63;;
26062;SDS011;13837;48.562;12.108;2023-02-01T06:22:37;24.80;;;23.20;;
26062;SDS011;13837;48.562;12.108;2023-02-01T06:25:04;25.33;;;23.65;;
26062;SDS011;13837;48.562;12.108;2023-02-01T06:27:31;24.50;;;22.95;;
26062;SDS011;13837;48.562;12.108;2023-02-01T06:29:57;23.58;;;22.27;;
26062;SDS011;13837;48.562;12.108;2023-02-01T06:32:23;24.63;;;23.23;;
26062;SDS011;13837;48.562;12.108;2023-02-01T06:34:49;24.25;;;22.90;;
26062;SDS011;13837;48.562;12.108;2023-02-01T06:37:17;23.92;;;22.63;;
26062;SDS011;13837;48.562;12.108;2023-02-01T06:39:43;24.65;;;23.35;;
26062;SDS011;13837;48.562;12.108;2023-02-01T06:42:10;24.13;;;22.73;;
26062;SDS011;13837;48.562;12.108;2023-02-01T06:44:36;23.42;;;22.13;;
26062;SDS011;13837;48.562;12.108;2023-02-01T06:47:05;23.95;;;22.65;;
26062;SDS011;13837;48.562;12.108;2023-02-01T06:49:31;24.40;;;22.92;;
26062;SDS011;13837;48.562;12.108;2023-02-01T06:51:57;24.42;;;22.88;;
26062;SDS011;13837;48.562;12.108;2023-02-01T06:54:25;23.90;;;22.65;;
26062;SDS011;13837;48.562;12.108;2023-02-01T06:56:51;24.77;;;23.38;;
26062;SDS011;13837;48.562;12.108;2023-02-01T06:59:17;23.80;;;22.60;;
26062;SDS011;13837;48.562;12.108;2023-02-01T07:01:43;24.13;;;22.60;;
26062;SDS011;13837;48.562;12.108;2023-02-01T07:04:10;24.15;;;22.75;;
26062;SDS011;13837;48.562;12.108;2023-02-01T07:06:37;24.60;;;23.10;;
26062;SDS011;13837;48.562;12.108;2023-02-01T07:09:03;24.33;;;23.00;;
26062;SDS011;13837;48.562;12.108;2023-02-01T07:11:29;24.13;;;22.83;;
26062;SDS011;13837;48.562;12.108;2023-02-01T07:13:55;23.40;;;22.10;;
26062;SDS011;13837;48.562;12.108;2023-02-01T07:16:21;24.85;;;23.45;;
26062;SDS011;13837;48.562;12.108;2023-02-01T07:18:49;25.30;;;23.55;;
26062;SDS011;13837;48.562;12.108;2023-02-01T07:21:16;25.08;;;23.45;;
26062;SDS011;13837;48.562;12.108;2023-02-01T07:23:42;23.73;;;22.40;;
26062;SDS011;13837;48.562;12.108;2023-02-01T07:26:09;23.30;;;21.90;;
26062;SDS011;13837;48.562;12.108;2023-02-01T07:28:37;23.75;;;22.38;;
26062;SDS011;13837;48.562;12.108;2023-02-01T07:31:04;23.17;;;21.88;;
26062;SDS011;13837;48.562;12.108;2023-02-01T07:33:30;22.95;;;21.50;;
26062;SDS011;13837;48.562;12.108;2023-02-01T07:35:56;22.35;;;21.10;;
26062;SDS011;13837;48.562;12.108;2023-02-01T07:38:22;23.50;;;22.20;;
26062;SDS011;13837;48.562;12.108;2023-02-01T07:40:49;23.20;;;21.90;;
26062;SDS011;13837;48.562;12.108;2023-02-01T07:43:15;22.20;;;21.00;;
26062;SDS011;13837;48.562;12.108;2023-02-01T07:45:41;22.90;;;21.50;;
26062;SDS011;13837;48.562;12.108;2023-02-01T07:48:07;23.08;;;21.88;;
26062;SDS011;13837;48.562;12.108;2023-02-01T07:50:33;23.45;;;22.13;;
26062;SDS011;13837;48.562;12.108;2023-02-01T07:53:00;22.70;;;21.40;;
26062;SDS011;13837;48.562;12.108;2023-02-01T07:55:26;22.58;;;21.27;;
26062;SDS011;13837;48.562;12.108;2023-02-01T07:57:52;22.45;;;21.13;;
26062;SDS011;13837;48.562;12.108;2023-02-01T08:00:18;22.35;;;21.20;;
26062;SDS011;13837;48.562;12.108;2023-02-01T08:03:04;22.73;;;21.33;;
26062;SDS011;13837;48.562;12.108;2023-02-01T08:05:30;22.75;;;21.50;;
26062;SDS011;13837;48.562;12.108;2023-02-01T08:07:56;22.90;;;21.50;;
26062;SDS011;13837;48.562;12.108;2023-02-01T08:10:22;21.90;;;20.80;;
26062;SDS011;13837;48.562;12.108;2023-02-01T08:12:48;22.30;;;21.10;;
26062;SDS011;13837;48.562;12.108;2023-02-01T08:15:17;22.73;;;21.42;;
26062;SDS011;13837;48.562;12.108;2023-02-01T08:17:50;22.63;;;21.33;;
26062;SDS011;13837;48.562;12.108;2023-02-01T08:20:17;22.90;;;21.50;;
26062;SDS011;13837;48.562;12.108;2023-02-01T08:22:43;23.27;;;21.75;;
26062;SDS011;13837;48.562;12.108;2023-02-01T08:25:10;23.52;;;22.15;;
26062;SDS011;13837;48.562;12.108;2023-02-01T08:27:36;23.10;;;21.90;;
26062;SDS011;13837;48.562;12.108;2023-02-01T08:30:03;23.83;;;22.42;;
26062;SDS011;13837;48.562;12.108;2023-02-01T08:32:30;24.30;;;22.90;;
26062;SDS011;13837;48.562;12.108;2023-02-01T08:34:56;24.15;;;22.65;;
26062;SDS011;13837;48.562;12.108;2023-02-01T08:37:22;24.73;;;23.13;;
26062;SDS011;13837;48.562;12.108;2023-02-01T08:39:48;24.38;;;23.10;;
26062;SDS011;13837;48.562;12.108;2023-02-01T08:42:16;23.73;;;22.33;;
26062;SDS011;13837;48.562;12.108;2023-02-01T08:45:01;24.38;;;22.88;;
26062;SDS011;13837;48.562;12.108;2023-02-01T08:47:27;24.45;;;22.90;;
26062;SDS011;13837;48.562;12.108;2023-02-01T08:49:53;24.30;;;22.90;;
26062;SDS011;13837;48.562;12.108;2023-02-01T08:52:19;23.58;;;22.27;;
26062;SDS011;13837;48.562;12.108;2023-02-01T08:54:46;23.15;;;21.85;;
26062;SDS011;13837;48.562;12.108;2023-02-01T08:57:12;23.83;;;22.42;;
26062;SDS011;13837;48.562;12.108;2023-02-01T08:59:38;24.25;;;22.67;;
26062;SDS011;13837;48.562;12.108;2023-02-01T09:02:04;23.98;;;22.58;;
26062;SDS011;13837;48.562;12.108;2023-02-01T09:04:30;26.15;;;24.25;;
26062;SDS011;13837;48.562;12.108;2023-02-01T09:06:56;23.08;;;21.67;;
26062;SDS011;13837;48.562;12.108;2023-02-01T09:09:22;22.52;;;21.33;;
26062;SDS011;13837;48.562;12.108;2023-02-01T09:11:48;22.90;;;21.60;;
26062;SDS011;13837;48.562;12.108;2023-02-01T09:14:17;30.98;;;29.33;;
26062;SDS011;13837;48.562;12.108;2023-02-01T09:16:43;22.77;;;21.40;;
26062;SDS011;13837;48.562;12.108;2023-02-01T09:19:09;22.13;;;20.75;;
26062;SDS011;13837;48.562;12.108;2023-02-01T09:21:36;21.73;;;20.38;;
26062;SDS011;13837;48.562;12.108;2023-02-01T09:24:02;21.60;;;20.30;;
26062;SDS011;13837;48.562;12.108;2023-02-01T09:26:29;20.75;;;19.50;;
26062;SDS011;13837;48.562;12.108;2023-02-01T09:28:55;6.32;;;5.05;;
26062;SDS011;13837;48.562;12.108;2023-02-01T09:31:21;7.85;;;5.55;;
26062;SDS011;13837;48.562;12.108;2023-02-01T09:33:47;6.00;;;5.40;;
26062;SDS011;13837;48.562;12.108;2023-02-01T09:36:13;4.20;;;3.42;;
26062;SDS011;13837;48.562;12.108;2023-02-01T09:38:39;4.45;;;3.05;;
26062;SDS011;13837;48.562;12.108;2023-02-01T09:41:22;4.15;;;3.50;;
26062;SDS011;13837;48.562;12.108;2023-02-01T09:46:31;4.93;;;4.32;;
26062;SDS011;13837;48.562;12.108;2023-02-01T09:49:00;9.13;;;7.80;;
26062;SDS011;13837;48.562;12.108;2023-02-01T09:51:32;7.22;;;6.55;;
26062;SDS011;13837;48.562;12.108;2023-02-01T09:54:00;6.03;;;3.53;;
26062;SDS011;13837;48.562;12.108;2023-02-01T09:56:32;3.78;;;3.30;;
26062;SDS011;13837;48.562;12.108;2023-02-01T09:59:12;5.57;;;5.07;;
26062;SDS011;13837;48.562;12.108;2023-02-01T10:01:42;3.83;;;3.38;;
26062;SDS011;13837;48.562;12.108;2023-02-01T10:04:09;5.65;;;3.55;;
26062;SDS011;13837;48.562;12.108;2023-02-01T10:12:00;5.00;;;4.05;;
26062;SDS011;13837;48.562;12.108;2023-02-01T10:17:31;5.05;;;3.63;;
26062;SDS011;13837;48.562;12.108;2023-02-01T10:20:09;5.18;;;3.33;;
26062;SDS011;13837;48.562;12.108;2023-02-01T10:22:41;4.97;;;3.40;;
26062;SDS011;13837;48.562;12.108;2023-02-01T10:27:34;4.78;;;4.07;;
26062;SDS011;13837;48.562;12.108;2023-02-01T10:30:04;4.00;;;3.60;;
26062;SDS011;13837;48.562;12.108;2023-02-01T10:32:31;6.45;;;4.10;;
26062;SDS011;13837;48.562;12.108;2023-02-01T10:34:59;6.40;;;4.47;;
26062;SDS011;13837;48.562;12.108;2023-02-01T10:37:29;6.93;;;3.85;;
26062;SDS011;13837;48.562;12.108;2023-02-01T10:39:57;8.27;;;4.45;;
26062;SDS011;13837;48.562;12.108;2023-02-01T10:42:28;7.18;;;4.10;;
26062;SDS011;13837;48.562;12.108;2023-02-01T10:44:55;6.88;;;4.05;;
26062;SDS011;13837;48.562;12.108;2023-02-01T10:47:22;5.78;;;3.90;;
26062;SDS011;13837;48.562;12.108;2023-02-01T10:52:25;6.90;;;4.63;;
26062;SDS011;13837;48.562;12.108;2023-02-01T10:54:53;5.78;;;4.72;;
26062;SDS011;13837;48.562;12.108;2023-02-01T10:57:24;4.82;;;4.38;;
26062;SDS011;13837;48.562;12.108;2023-02-01T10:59:51;7.35;;;4.50;;
26062;SDS011;13837;48.562;12.108;2023-02-01T11:02:29;6.88;;;4.90;;
26062;SDS011;13837;48.562;12.108;2023-02-01T11:05:05;8.82;;;5.10;;
26062;SDS011;13837;48.562;12.108;2023-02-01T11:10:00;7.25;;;4.68;;
26062;SDS011;13837;48.562;12.108;2023-02-01T11:12:37;5.63;;;4.75;;
26062;SDS011;13837;48.562;12.108;2023-02-01T11:15:19;6.65;;;5.10;;
26062;SDS011;13837;48.562;12.108;2023-02-01T11:17:47;5.97;;;4.88;;
26062;SDS011;13837;48.562;12.108;2023-02-01T11:20:25;6.97;;;5.70;;
26062;SDS011;13837;48.562;12.108;2023-02-01T11:22:58;7.57;;;5.68;;
26062;SDS011;13837;48.562;12.108;2023-02-01T11:25:25;7.03;;;5.13;;
26062;SDS011;13837;48.562;12.108;2023-02-01T11:27:51;5.97;;;5.30;;
26062;SDS011;13837;48.562;12.108;2023-02-01T11:30:22;6.75;;;5.25;;
26062;SDS011;13837;48.562;12.108;2023-02-01T11:32:50;7.25;;;5.10;;
26062;SDS011;13837;48.562;12.108;2023-02-01T11:35:18;12.63;;;5.63;;
26062;SDS011;13837;48.562;12.108;2023-02-01T11:37:44;6.25;;;5.40;;
26062;SDS011;13837;48.562;12.108;2023-02-01T11:42:53;5.80;;;4.75;;
26062;SDS011;13837;48.562;12.108;2023-02-01T11:45:24;6.10;;;5.32;;
26062;SDS011;13837;48.562;12.108;2023-02-01T11:47:54;8.25;;;4.35;;
26062;SDS011;13837;48.562;12.108;2023-02-01T11:53:06;6.57;;;5.05;;
26062;SDS011;13837;48.562;12.108;2023-02-01T12:08:45;9.35;;;4.43;;
26062;SDS011;13837;48.562;12.108;2023-02-01T12:16:19;8.98;;;4.97;;
26062;SDS011;13837;48.562;12.108;2023-02-01T12:18:51;8.18;;;4.50;;
26062;SDS011;13837;48.562;12.108;2023-02-01T12:21:27;5.93;;;4.90;;
26062;SDS011;13837;48.562;12.108;2023-02-01T12:31:50;5.43;;;3.28;;
26062;SDS011;13837;48.562;12.108;2023-02-01T12:34:35;4.85;;;3.45;;
26062;SDS011;13837;48.562;12.108;2023-02-01T12:42:21;5.47;;;4.00;;
26062;SDS011;13837;48.562;12.108;2023-02-01T12:44:56;7.78;;;4.43;;
26062;SDS011;13837;48.562;12.108;2023-02-01T12:55:41;9.43;;;5.60;;
26062;SDS011;13837;48.562;12.108;2023-02-01T12:57:40;6.18;;;4.20;;
26062;SDS011;13837;48.562;12.108;2023-02-01T13:00:18;6.85;;;4.45;;
26062;SDS011;13837;48.562;12.108;2023-02-01T13:02:50;6.90;;;4.53;;
26062;SDS011;13837;48.562;12.108;2023-02-01T13:05:27;6.43;;;4.75;;
26062;SDS011;13837;48.562;12.108;2023-02-01T13:10:32;6.35;;;4.40;;
26062;SDS011;13837;48.562;12.108;2023-02-01T13:13:02;7.05;;;4.63;;
26062;SDS011;13837;48.562;12.108;2023-02-01T13:15:49;6.32;;;4.40;;
26062;SDS011;13837;48.562;12.108;2023-02-01T13:18:18;7.20;;;4.47;;
26062;SDS011;13837;48.562;12.108;2023-02-01T13:20:47;9.27;;;4.70;;
26062;SDS011;13837;48.562;12.108;2023-02-01T13:23:19;5.95;;;4.50;;
26062;SDS011;13837;48.562;12.108;2023-02-01T13:25:49;6.05;;;4.38;;
26062;SDS011;13837;48.562;12.108;2023-02-01T13:41:14;7.85;;;5.57;;
26062;SDS011;13837;48.562;12.108;2023-02-01T13:43:49;5.80;;;4.85;;
26062;SDS011;13837;48.562;12.108;2023-02-01T13:46:16;7.13;;;4.57;;
26062;SDS011;13837;48.562;12.108;2023-02-01T13:48:47;8.45;;;4.93;;
26062;SDS011;13837;48.562;12.108;2023-02-01T13:51:14;7.50;;;4.50;;
26062;SDS011;13837;48.562;12.108;2023-02-01T13:53:48;9.30;;;4.55;;
26062;SDS011;13837;48.562;12.108;2023-02-01T13:56:20;11.10;;;4.35;;
26062;SDS011;13837;48.562;12.108;2023-02-01T13:58:49;9.55;;;3.92;;
26062;SDS011;13837;48.562;12.108;2023-02-01T14:09:13;7.07;;;3.88;;
26062;SDS011;13837;48.562;12.108;2023-02-01T14:11:46;7.00;;;4.40;;
26062;SDS011;13837;48.562;12.108;2023-02-01T14:19:32;10.93;;;3.95;;
26062;SDS011;13837;48.562;12.108;2023-02-01T14:24:27;14.15;;;4.78;;
26062;SDS011;13837;48.562;12.108;2023-02-01T14:26:54;10.23;;;5.15;;
26062;SDS011;13837;48.562;12.108;2023-02-01T14:29:26;9.15;;;3.92;;
26062;SDS011;13837;48.562;12.108;2023-02-01T14:34:39;7.28;;;4.32;;
26062;SDS011;13837;48.562;12.108;2023-02-01T14:42:18;10.70;;;4.47;;
26062;SDS011;13837;48.562;12.108;2023-02-01T14:44:46;7.88;;;3.63;;
26062;SDS011;13837;48.562;12.108;2023-02-01T14:49:49;8.70;;;3.88;;
26062;SDS011;13837;48.562;12.108;2023-02-01T14:52:18;9.02;;;4.82;;
26062;SDS011;13837;48.562;12.108;2023-02-01T14:54:49;7.60;;;4.22;;
26062;SDS011;13837;48.562;12.108;2023-02-01T14:57:17;7.07;;;4.45;;
26062;SDS011;13837;48.562;12.108;2023-02-01T14:59:45;7.75;;;4.40;;
26062;SDS011;13837;48.562;12.108;2023-02-01T15:02:21;9.55;;;4.75;;
26062;SDS011;13837;48.562;12.108;2023-02-01T15:04:53;7.22;;;4.55;;
26062;SDS011;13837;48.562;12.108;2023-02-01T15:07:19;6.70;;;4.28;;
26062;SDS011;13837;48.562;12.108;2023-02-01T15:09:46;6.93;;;3.90;;
26062;SDS011;13837;48.562;12.108;2023-02-01T15:12:17;13.32;;;5.90;;
26062;SDS011;13837;48.562;12.108;2023-02-01T15:17:31;8.88;;;4.20;;
26062;SDS011;13837;48.562;12.108;2023-02-01T15:20:01;8.37;;;3.73;;
26062;SDS011;13837;48.562;12.108;2023-02-01T15:22:28;7.32;;;3.63;;
26062;SDS011;13837;48.562;12.108;2023-02-01T15:24:55;9.15;;;4.63;;
26062;SDS011;13837;48.562;12.108;2023-02-01T15:27:21;5.88;;;3.38;;
26062;SDS011;13837;48.562;12.108;2023-02-01T15:29:48;5.28;;;3.28;;
26062;SDS011;13837;48.562;12.108;2023-02-01T15:32:31;8.85;;;3.65;;
26062;SDS011;13837;48.562;12.108;2023-02-01T15:34:57;8.13;;;4.28;;
26062;SDS011;13837;48.562;12.108;2023-02-01T15:37:25;8.30;;;4.45;;
26062;SDS011;13837;48.562;12.108;2023-02-01T15:42:36;8.32;;;4.07;;
26062;SDS011;13837;48.562;12.108;2023-02-01T15:45:15;8.07;;;4.18;;
26062;SDS011;13837;48.562;12.108;2023-02-01T15:47:42;11.98;;;5.03;;
26062;SDS011;13837;48.562;12.108;2023-02-01T15:50:12;7.03;;;3.80;;
26062;SDS011;13837;48.562;12.108;2023-02-01T15:52:39;6.10;;;3.25;;
26062;SDS011;13837;48.562;12.108;2023-02-01T15:55:40;6.40;;;4.22;;
26062;SDS011;13837;48.562;12.108;2023-02-01T15:57:58;10.20;;;4.28;;
26062;SDS011;13837;48.562;12.108;2023-02-01T16:00:29;9.30;;;4.20;;
26062;SDS011;13837;48.562;12.108;2023-02-01T16:02:56;8.57;;;3.58;;
26062;SDS011;13837;48.562;12.108;2023-02-01T16:08:00;9.20;;;4.20;;
26062;SDS011;13837;48.562;12.108;2023-02-01T16:10:29;5.05;;;3.63;;
26062;SDS011;13837;48.562;12.108;2023-02-01T16:12:55;7.30;;;4.65;;
26062;SDS011;13837;48.562;12.108;2023-02-01T16:15:25;5.88;;;3.58;;
26062;SDS011;13837;48.562;12.108;2023-02-01T16:17:54;5.70;;;3.83;;
26062;SDS011;13837;48.562;12.108;2023-02-01T16:20:20;7.00;;;3.83;;
26062;SDS011;13837;48.562;12.108;2023-02-01T16:22:46;20.73;;;9.45;;
26062;SDS011;13837;48.562;12.108;2023-02-01T16:25:12;15.40;;;8.43;;
26062;SDS011;13837;48.562;12.108;2023-02-01T16:27:38;16.08;;;7.93;;
26062;SDS011;13837;48.562;12.108;2023-02-01T16:30:04;9.25;;;5.13;;
26062;SDS011;13837;48.562;12.108;2023-02-01T16:32:33;50.25;;;21.15;;
26062;SDS011;13837;48.562;12.108;2023-02-01T16:35:03;8.55;;;4.38;;
26062;SDS011;13837;48.562;12.108;2023-02-01T16:37:30;13.10;;;5.13;;
26062;SDS011;13837;48.562;12.108;2023-02-01T16:39:58;8.38;;;4.32;;
26062;SDS011;13837;48.562;12.108;2023-02-01T16:42:24;7.43;;;4.97;;
26062;SDS011;13837;48.562;12.108;2023-02-01T16:44:50;13.60;;;6.22;;
26062;SDS011;13837;48.562;12.108;2023-02-01T16:47:17;14.60;;;9.27;;
26062;SDS011;13837;48.562;12.108;2023-02-01T16:49:44;12.68;;;5.55;;
26062;SDS011;13837;48.562;12.108;2023-02-01T16:52:17;13.45;;;7.25;;
26062;SDS011;13837;48.562;12.108;2023-02-01T16:54:44;11.95;;;5.20;;
26062;SDS011;13837;48.562;12.108;2023-02-01T16:57:10;7.28;;;3.65;;
26062;SDS011;13837;48.562;12.108;2023-02-01T16:59:37;6.97;;;3.60;;